Decoded Metar for KDVL (DEVILS LAKE in ND, USA) (IATA:DVL) | Meteo·Mobile Aviation Weather
aviador You're here:

KDVL Decoded Metar

DEVILS LAKE in ND, USA
Report Time2019-06-17 14:56:00
UTC Time2019-06-17 15:50:21
Flight Rules mvfr MVFR
Wind340° at 12 kt
W.Decomp.*RWY 31: 11.0 kt HW 4.7 kt RCW
RWY 03: 6.5 kt HW 10.1 kt LCW
Visibility9999 m
Phenomena:N/A
Clouds:Overcast 014 Hf
Expected CloudBase > 1,200 ft AGL from Temp-Dew spread
Ceiling1,400 ft
Temp13°C (ISA +1)
Dew Point10°C (82% RH)
AAT8.7°C
QNH1017 hPa
Density Alt1,594 ft
Elevation1,453 ft
Report Wrong Elevation
Raw Report
KDVL 171456Z AUTO 34012KT 10SM OVC014 13/10 A3004 RMK AO2 SLP753
T01280100 53009=

Extra information for KDVL:More info

Metar Taf Metar & Taf Last 4 Metars F.Rules Stats Wind Profile Meteogram Temp Stats Airport Information Weather charts Add Link Nearby VenuesMetar ALERT Operation Metar Decoded Social comments

AIRNAV info for KDVL